OIAI  Shahid Asyaee Airport

Add Bookmark

Iran

Status
Operational
Latitude Longitude
32° 0' 8" N 49° 16' 13" E
32.002399 49.270401
Local (DST + 5) UTC (GMT + 4)
Oct 26, 2014 10:25 Oct 26, 2014 06:55
Sunrise-Sunset Local UTC
Begin Civil Twilight 05:58 02:28
Sunrise 06:23 02:53
Sunset 05:30 14:00
End Civil Twilight 05:55 14:25

Current Weather

METAR Observed VFR
OIAI 260500Z 11004KT CAVOK 23/08 Q1014 Sun, Oct 26, 2014 @ 05:00 UTC
(1 Hour, 55 Minutes ago)
Visual Flight Rules
Wind Visibility Clouds Conditions
110° at 4 knots (7 kph) 10 km or more
  • Clear skies
  • No significant weather
Temperatures Readings Precipitation
Current Temp 23°C (73°F)
Dewpoint 8°C (46°F)
Humidity 38%
Altimeter 29.94"Hg
Sea Level Pressure 1014mb
Field Elevation 1220.47'
None Recorded

Additional weather within a 92.6km radius of OIAI

Map ICAO Location
OIAW 88.2km S (213°)

24 Hour Weather History

Loading
-

24 Hour Weather Graphs

Loading
-

CheckWX.com is intended as a tool to help pilots better visualize weather data. It is not intended as a substitute for an official weather briefing obtained from a Flight Service Station. CheckWX.com does not meet the FAA requirements for an official pre-flight weather briefing. Therefore, it's important that pilots still call and obtain an official FSS pre-flight weather briefing.